Latest Weather Observations for King Island Airport

IDT60801

Issued at 3:02 pm EDT Wednesday 18 January 2017 (issued every 30 minutes, with the page automatically refreshed every 10 minutes)

About weather observations | Map of weather stations | Latest weather observations for TAS | Other Formats
Station Details ID: 098017 Name: KING ISLAND AIRPORT Lat: -39.88 Lon: 143.88 Height: 37.0 m
Data from the previous 72 hours. | See also: Recent months at King Island Airport
Date/Time
EDT
Temp
°C
App
Temp
°C
Dew
Point
°C
Rel
Hum
%
Delta-T
°C
Wind Press
QNH
hPa
Press
MSL
hPa
Rain since
9am
mm
Dir  Spd
km/h
Gust
km/h
Spd
kts
Gust
kts
18/03:00pm 17.0 11.6 9.4 61 4.0 SSW 28 39 15 21 1017.1 1017.0 0.0
18/02:30pm 16.6 10.2 9.5 63 3.7 SSW 33 50 18 27 1016.9 1016.8 0.0
18/02:00pm 16.8 10.1 8.2 57 4.4 SSW 33 48 18 26 1016.8 1016.7 0.0
18/01:30pm 16.6 9.8 7.8 56 4.4 SSW 33 44 18 24 1016.6 1016.5 0.0
18/01:00pm 16.6 9.7 7.3 54 4.6 SW 33 44 18 24 1016.4 1016.3 0.0
18/12:30pm 17.2 10.4 7.5 53 4.9 SSW 33 52 18 28 1016.1 1016.0 0.0
18/12:00pm 17.0 9.4 7.6 54 4.7 SSW 37 48 20 26 1015.9 1015.8 0.0
18/11:30am 15.4 7.8 5.9 53 4.6 SSW 35 48 19 26 1015.6 1015.5 0.0
18/11:00am 15.8 9.1 8.1 60 3.9 SSW 33 46 18 25 1015.2 1015.1 0.0
18/10:30am 15.8 8.6 7.6 58 4.1 SSW 35 50 19 27 1014.8 1014.7 0.0
18/10:00am 16.0 8.1 8.0 59 4.0 SSW 39 50 21 27 1014.4 1014.3 0.0
18/09:30am 15.7 8.5 7.7 59 4.0 SW 35 44 19 24 1014.1 1014.0 0.0
18/09:12am 15.7 9.1 7.7 59 4.0 SW 32 52 17 28 1013.7 1013.6 0.0
18/09:00am 15.4 8.1 7.2 58 4.1 SW 35 44 19 24 1013.6 1013.5 4.0
18/08:30am 14.7 8.1 7.7 63 3.5 SW 32 50 17 27 1013.3 1013.2 4.0
18/08:00am 14.1 6.8 8.7 70 2.7 SW 37 48 20 26 1012.9 1012.8 4.0
18/07:30am 14.4 7.4 8.4 67 3.0 SW 35 46 19 25 1012.5 1012.4 4.0
18/07:00am 13.9 7.5 8.5 70 2.7 SW 32 44 17 24 1012.0 1011.9 4.0
18/06:30am 14.0 7.0 8.6 70 2.7 SW 35 50 19 27 1011.5 1011.4 4.0
18/06:00am 14.3 7.6 9.5 73 2.5 SW 35 46 19 25 1010.9 1010.8 4.0
18/05:43am 14.5 9.3 10.1 75 2.3 SW 28 46 15 25 1010.7 1010.6 4.0
18/05:30am 14.0 8.2 9.6 75 2.3 SW 30 41 16 22 1010.5 1010.4 4.0
18/05:00am 14.2 8.5 9.8 75 2.3 SW 30 41 16 22 1009.6 1009.6 4.0
18/04:30am 14.0 9.1 9.8 76 2.2 SW 26 37 14 20 1009.1 1009.1 4.0
18/04:00am 13.9 8.5 9.5 75 2.3 SW 28 39 15 21 1009.1 1009.1 4.0
18/03:30am 14.0 9.2 10.2 78 2.0 SW 26 33 14 18 1009.0 1009.0 4.0
18/03:00am 14.3 9.2 10.7 79 1.9 SW 28 35 15 19 1009.3 1009.3 4.0
18/02:30am 14.2 9.0 11.5 84 1.4 SW 30 39 16 21 1009.4 1009.4 4.0
18/02:00am 14.2 9.5 12.1 87 1.1 SW 28 39 15 21 1009.2 1009.2 4.0
18/01:30am 14.5 10.5 13.0 91 0.8 SW 26 35 14 19 1009.1 1009.1 4.0
18/01:00am 14.1 10.5 13.0 93 0.6 SW 24 33 13 18 1009.0 1009.0 4.0
18/12:45am 14.7 10.2 13.7 94 0.6 SW 30 43 16 23 1009.0 1009.0 3.8
18/12:30am 15.2 11.3 14.4 95 0.5 WSW 28 39 15 21 1009.4 1009.4 3.4
18/12:00am 15.5 12.1 14.7 95 0.5 WSW 26 33 14 18 1009.3 1009.3 3.0
 
Date/Time
EDT
Temp
°C
App
Temp
°C
Dew
Point
°C
Rel
Hum
%
Delta-T
°C
Wind Press
QNH
hPa
Press
MSL
hPa
Rain since
9am
mm
Dir  Spd
km/h
Gust
km/h
Spd
kts
Gust
kts
17/11:58pm 15.5 12.1 14.7 95 0.5 WSW 26 33 14 18 1009.1 1009.1 3.0
17/11:52pm 15.5 11.7 14.7 95 0.5 WSW 28 35 15 19 1009.3 1009.3 3.0
17/11:34pm 15.2 11.7 14.4 95 0.5 WSW 26 39 14 21 1009.3 1009.3 3.0
17/11:30pm 15.5 11.7 14.7 95 0.5 WSW 28 39 15 21 1009.5 1009.5 3.0
17/11:00pm 15.8 12.5 15.0 95 0.5 W 26 37 14 20 1009.9 1009.9 2.4
17/10:30pm 16.1 14.0 15.3 95 0.5 WSW 20 39 11 21 1009.5 1009.5 2.0
17/10:00pm 16.1 14.6 15.3 95 0.5 WSW 17 22 9 12 1008.7 1008.7 1.8
17/09:30pm 16.0 14.0 15.0 94 0.6 WSW 19 28 10 15 1008.1 1008.1 1.6
17/09:00pm 16.3 14.2 15.3 94 0.6 WSW 20 26 11 14 1008.0 1008.0 1.0
17/08:30pm 16.2 15.0 15.1 93 0.6 SW 15 22 8 12 1007.2 1007.2 0.2
17/08:00pm 16.4 14.8 15.1 92 0.8 SW 17 26 9 14 1008.0 1008.0 0.0
17/07:30pm 17.2 15.3 15.7 91 0.9 WSW 20 30 11 16 1008.1 1008.1 0.0
17/07:13pm 17.3 14.6 15.6 90 1.0 SW 24 33 13 18 1007.4 1007.4 0.0
17/07:00pm 17.5 15.2 15.7 89 1.1 SW 22 32 12 17 1007.1 1007.1 0.0
17/06:30pm 18.0 16.2 15.6 86 1.4 SW 19 26 10 14 1006.7 1006.7 0.0
17/06:00pm 18.8 18.3 15.9 83 1.7 WSW 13 19 7 10 1005.9 1005.9 0.0
17/05:30pm 18.9 18.4 15.8 82 1.8 W 13 15 7 8 1005.5 1005.5 0.0
17/05:00pm 19.1 18.2 15.8 81 2.0 WNW 15 19 8 10 1006.1 1006.1 0.0
17/04:30pm 19.4 17.7 15.7 79 2.2 WNW 19 24 10 13 1006.5 1006.5 0.0
17/04:00pm 19.6 18.1 15.3 76 2.5 NW 17 24 9 13 1006.7 1006.7 0.0
17/03:30pm 19.7 17.7 14.9 74 2.8 NW 19 24 10 13 1006.9 1006.9 0.0
17/03:00pm 20.1 18.5 14.9 72 3.1 WNW 17 24 9 13 1007.0 1007.0 0.0
17/02:30pm 19.9 18.6 14.9 73 2.9 NW 15 19 8 10 1006.7 1006.7 0.0
17/02:00pm 20.0 19.1 14.8 72 3.1 WNW 13 20 7 11 1006.9 1006.9 0.0
17/01:30pm 19.7 17.8 14.3 71 3.1 W 17 22 9 12 1007.2 1007.2 0.0
17/01:00pm 19.8 18.7 15.2 75 2.7 W 15 19 8 10 1007.4 1007.4 0.0
17/12:30pm 19.7 17.6 14.7 73 2.9 W 19 24 10 13 1007.7 1007.7 0.0
17/12:00pm 20.0 18.3 14.8 72 3.1 WNW 17 28 9 15 1007.6 1007.6 0.0
17/11:30am 19.9 18.7 15.1 74 2.8 NW 15 22 8 12 1007.7 1007.7 0.0
17/11:00am 19.7 17.9 14.5 72 3.0 WNW 17 24 9 13 1007.8 1007.8 0.0
17/10:30am 19.4 17.7 14.6 74 2.8 W 17 20 9 11 1008.0 1008.0 0.0
17/10:00am 19.2 17.9 14.9 76 2.5 W 15 19 8 10 1008.2 1008.2 0.0
17/09:30am 19.4 18.1 14.9 75 2.6 WNW 15 20 8 11 1008.1 1008.1 0.0
17/09:00am 19.1 18.0 15.2 78 2.3 WNW 15 22 8 12 1008.2 1008.2 0.0
17/08:30am 18.3 17.3 15.6 84 1.6 NW 15 20 8 11 1007.7 1007.7 0.0
17/08:00am 17.5 17.7 15.7 89 1.1 NNW 9 11 5 6 1006.8 1006.8 0.0
17/07:30am 17.1 17.7 15.8 92 0.8 NNW 7 9 4 5 1007.1 1007.1 0.0
17/07:00am 16.4 16.5 15.4 94 0.6 NNW 9 11 5 6 1007.2 1007.2 0.0
17/06:30am 16.1 16.7 15.3 95 0.5 NW 6 9 3 5 1006.9 1006.9 0.0
17/06:00am 15.9 15.9 15.1 95 0.5 NNW 9 11 5 6 1007.0 1007.0 0.0
17/05:30am 15.7 17.4 15.1 96 0.3 CALM 0 6 0 3 1007.4 1007.4 0.0
17/05:00am 14.4 15.5 13.6 95 0.4 CALM 0 0 0 0 1007.0 1007.0 0.0
17/04:30am 14.0 15.0 13.2 95 0.4 CALM 0 0 0 0 1006.9 1006.9 0.0
17/04:00am 13.9 14.9 13.1 95 0.4 CALM 0 0 0 0 1007.3 1007.3 0.0
17/03:30am 14.1 15.1 13.1 94 0.6 CALM 0 0 0 0 1007.5 1007.5 0.0
17/03:00am 14.0 15.0 13.1 94 0.5 CALM 0 0 0 0 1007.7 1007.7 0.0
17/02:30am 14.2 15.2 13.1 93 0.6 CALM 0 0 0 0 1008.1 1008.1 0.0
17/02:00am 14.5 15.6 13.4 93 0.6 CALM 0 0 0 0 1008.1 1008.1 0.0
17/01:30am 14.5 15.5 13.2 92 0.7 CALM 0 0 0 0 1008.2 1008.2 0.0
17/01:00am 14.9 16.0 13.4 91 0.8 CALM 0 0 0 0 1008.6 1008.6 0.0
17/12:30am 15.7 17.0 14.1 90 0.9 CALM 0 0 0 0 1008.8 1008.8 0.0
17/12:00am 15.7 15.6 13.9 89 1.0 ENE 7 9 4 5 1008.8 1008.8 0.0
 
Date/Time
EDT
Temp
°C
App
Temp
°C
Dew
Point
°C
Rel
Hum
%
Delta-T
°C
Wind Press
QNH
hPa
Press
MSL
hPa
Rain since
9am
mm
Dir  Spd
km/h
Gust
km/h
Spd
kts
Gust
kts
16/11:30pm 15.7 15.5 13.7 88 1.1 ENE 7 9 4 5 1009.2 1009.2 0.0
16/11:00pm 15.7 15.4 13.2 85 1.4 ENE 7 9 4 5 1009.9 1009.9 0.0
16/10:30pm 16.0 15.2 12.9 82 1.7 NE 9 9 5 5 1009.9 1009.9 0.0
16/10:00pm 16.2 15.2 12.2 77 2.2 NE 9 11 5 6 1009.9 1009.9 0.0
16/09:30pm 17.0 16.3 11.9 72 2.8 NE 7 9 4 5 1010.3 1010.2 0.0
16/09:00pm 18.3 17.9 12.3 68 3.3 N 6 9 3 5 1010.6 1010.5 0.0
16/08:30pm 18.8 17.6 12.8 68 3.4 N 11 15 6 8 1010.4 1010.3 0.0
16/08:00pm 18.8 17.3 13.0 69 3.3 NW 13 17 7 9 1010.5 1010.4 0.0
16/07:30pm 18.7 16.8 13.1 70 3.2 NNW 15 19 8 10 1010.3 1010.2 0.0
16/07:00pm 18.6 16.2 12.8 69 3.3 NW 17 20 9 11 1010.7 1010.6 0.0
16/06:30pm 19.3 16.4 12.3 64 3.9 NW 19 26 10 14 1010.7 1010.6 0.0
16/06:00pm 19.5 16.7 12.5 64 3.9 NW 19 22 10 12 1010.9 1010.8 0.0
16/05:30pm 19.7 16.7 12.7 64 3.9 NNW 20 26 11 14 1010.9 1010.8 0.0
16/05:00pm 19.7 16.7 12.7 64 3.9 NNW 20 28 11 15 1011.2 1011.1 0.0
16/04:30pm 18.8 15.2 11.9 64 3.8 NNW 22 30 12 16 1011.7 1011.6 0.0
16/04:00pm 19.4 16.0 12.4 64 3.9 NNW 22 30 12 16 1012.1 1012.0 0.0
16/03:30pm 19.2 16.2 12.0 63 4.0 N 19 26 10 14 1012.3 1012.2 0.0
16/03:00pm 17.9 14.1 11.2 65 3.6 NNW 22 32 12 17 1012.8 1012.7 0.0
16/02:30pm 18.5 15.1 12.5 68 3.3 NNW 22 32 12 17 1013.1 1013.0 0.0
16/02:00pm 18.1 14.0 11.4 65 3.7 NNW 24 33 13 18 1013.6 1013.5 0.0
16/01:30pm 18.4 15.1 11.7 65 3.7 NNW 20 30 11 16 1013.9 1013.8 0.0
16/01:00pm 18.1 14.7 11.4 65 3.7 NW 20 30 11 16 1014.1 1014.0 0.0
16/12:30pm 17.9 14.4 11.0 64 3.7 NW 20 32 11 17 1014.4 1014.3 0.0
16/12:00pm 18.6 14.5 11.4 63 3.9 NW 24 33 13 18 1014.8 1014.7 0.0
16/11:30am 18.0 13.7 10.9 63 3.8 NNW 24 32 13 17 1015.0 1014.9 0.0
16/11:00am 17.5 13.5 10.4 63 3.8 NW 22 32 12 17 1015.1 1015.0 0.0
16/10:30am 17.0 13.6 10.4 65 3.5 NW 19 30 10 16 1015.1 1015.0 0.0
16/10:00am 17.1 13.7 10.5 65 3.5 NW 19 26 10 14 1015.5 1015.4 0.0
16/09:30am 16.3 12.9 10.4 68 3.1 WNW 19 26 10 14 1015.7 1015.6 0.0
16/09:00am 16.2 13.2 10.5 69 3.0 NW 17 20 9 11 1015.6 1015.5 0.0
16/08:30am 15.8 12.7 10.3 70 2.9 WNW 17 20 9 11 1015.8 1015.7 0.0
16/08:00am 15.5 13.2 10.3 71 2.7 NW 13 17 7 9 1015.6 1015.5 0.0
16/07:30am 15.2 12.8 10.0 71 2.7 NW 13 17 7 9 1015.5 1015.4 0.0
16/07:00am 14.7 12.2 9.7 72 2.6 WSW 13 17 7 9 1015.3 1015.2 0.0
16/06:30am 14.7 11.8 9.7 72 2.6 NW 15 20 8 11 1015.0 1014.9 0.0
16/06:00am 14.6 12.9 9.8 73 2.5 W 9 11 5 6 1014.8 1014.7 0.0
16/05:30am 14.6 12.5 9.8 73 2.5 W 11 15 6 8 1014.8 1014.7 0.0
16/05:00am 14.7 12.0 10.5 76 2.2 WNW 15 22 8 12 1014.7 1014.6 0.0
16/04:30am 14.1 11.3 11.3 83 1.5 WNW 17 20 9 11 1014.7 1014.6 0.0
16/04:00am 13.9 12.6 11.1 83 1.5 WNW 9 11 5 6 1014.7 1014.6 0.0
16/03:30am 14.2 12.3 10.6 79 1.9 W 11 15 6 8 1014.8 1014.7 0.0
16/03:00am 14.2 12.3 10.4 78 2.0 W 11 13 6 7 1015.0 1014.9 0.0
16/02:30am 14.1 11.4 10.3 78 2.0 W 15 20 8 11 1015.2 1015.1 0.0
16/02:00am 14.3 11.6 10.5 78 2.0 WSW 15 20 8 11 1015.5 1015.4 0.0
16/01:30am 14.8 12.7 9.6 71 2.7 W 11 15 6 8 1015.9 1015.8 0.0
16/01:00am 14.9 11.9 9.1 68 3.0 W 15 20 8 11 1016.2 1016.1 0.0
16/12:30am 14.9 12.7 9.3 69 2.9 W 11 15 6 8 1016.5 1016.4 0.0
16/12:00am 14.9 12.0 9.5 70 2.8 WSW 15 19 8 10 1016.9 1016.8 0.0
 
Date/Time
EDT
Temp
°C
App
Temp
°C
Dew
Point
°C
Rel
Hum
%
Delta-T
°C
Wind Press
QNH
hPa
Press
MSL
hPa
Rain since
9am
mm
Dir  Spd
km/h
Gust
km/h
Spd
kts
Gust
kts
15/11:30pm 14.8 11.8 9.4 70 2.8 WSW 15 22 8 12 1017.0 1016.9 0.0
15/11:00pm 14.9 12.0 9.5 70 2.8 WSW 15 20 8 11 1017.2 1017.1 0.0
15/10:30pm 14.9 12.5 9.9 72 2.6 W 13 17 7 9 1017.5 1017.4 0.0
15/10:00pm 15.0 12.2 10.0 72 2.6 WSW 15 26 8 14 1017.4 1017.3 0.0
15/09:30pm 15.0 12.3 10.2 73 2.5 WSW 15 24 8 13 1017.4 1017.3 0.0
15/09:00pm 15.0 11.8 10.0 72 2.6 W 17 26 9 14 1017.4 1017.3 0.0
15/08:30pm 14.9 11.9 10.7 76 2.2 W 17 24 9 13 1017.2 1017.1 0.0
15/08:00pm 15.2 12.2 10.8 75 2.3 W 17 22 9 12 1017.1 1017.0 0.0
15/07:30pm 15.2 11.9 10.8 75 2.3 WSW 19 28 10 15 1016.9 1016.8 0.0
15/07:00pm 15.4 12.0 10.6 73 2.5 W 19 28 10 15 1017.0 1016.9 0.0
15/06:30pm 15.5 12.0 10.3 71 2.7 W 19 22 10 12 1017.2 1017.1 0.0
15/06:00pm 16.2 12.6 10.5 69 3.0 W 20 26 11 14 1017.4 1017.3 0.0
15/05:30pm 16.2 12.1 10.1 67 3.2 WSW 22 30 12 16 1017.7 1017.6 0.0
15/05:00pm 16.2 11.6 9.8 66 3.3 WSW 24 30 13 16 1018.0 1017.9 0.0
15/04:30pm 16.8 12.3 10.2 65 3.5 WSW 24 33 13 18 1018.2 1018.1 0.0
15/04:00pm 16.9 11.5 9.6 62 3.8 WSW 28 37 15 20 1018.4 1018.3 0.0
15/03:30pm 17.0 12.1 10.1 64 3.7 WSW 26 37 14 20 1018.3 1018.2 0.0

Other Formats:

Comma delimited format used in spreadsheet applications
http://www.bom.gov.au/fwo/IDT60801/IDT60801.94850.axf

JavaScript Object Notation format (JSON) in row-major order
http://www.bom.gov.au/fwo/IDT60801/IDT60801.94850.json